Time;durP1;ratioP1;P1;durP2;ratioP2;P2;SDS_P1;SDS_P2;PMS_P1;PMS_P2;Temp;Humidity;BMP_temperature;BMP_pressure;BME280_temperature;BME280_humidity;BME280_pressure;Samples;Min_cycle;Max_cycle;Signal;HPM_P1;HPM_P2
2022/11/09 00:00:07;;;;;;;4.82;1.42;;;;;;;;;;5075832;28;20543;-88
2022/11/09 00:02:40;;;;;;;2.95;1.50;;;;;;;;;;5090633;28;20046;-87
2022/11/09 00:05:12;;;;;;;2.88;1.38;;;;;;;;;;5073768;28;20127;-87
2022/11/09 00:07:40;;;;;;;3.78;1.40;;;;;;;;;;5091586;28;20044;-88
2022/11/09 00:10:08;;;;;;;5.88;1.40;;;;;;;;;;5072888;28;20046;-88
2022/11/09 00:12:36;;;;;;;5.10;1.52;;;;;;;;;;5091776;28;20507;-87
2022/11/09 00:15:08;;;;;;;3.42;1.52;;;;;;;;;;5067453;28;20122;-88
2022/11/09 00:17:36;;;;;;;5.45;1.83;;;;;;;;;;5093735;28;20039;-88
2022/11/09 00:20:04;;;;;;;5.35;1.60;;;;;;;;;;5076520;28;20555;-88
2022/11/09 00:22:32;;;;;;;3.05;1.33;;;;;;;;;;5092269;28;20036;-87
2022/11/09 00:25:00;;;;;;;4.57;1.70;;;;;;;;;;5077095;28;20138;-88
2022/11/09 00:27:28;;;;;;;4.40;1.40;;;;;;;;;;5058496;28;20101;-87
2022/11/09 00:29:56;;;;;;;3.08;1.40;;;;;;;;;;5075829;28;20051;-88
2022/11/09 00:32:48;;;;;;;4.35;1.80;;;;;;;;;;5092490;28;20036;-87
2022/11/09 00:35:16;;;;;;;4.55;1.60;;;;;;;;;;5080818;28;20444;-87
2022/11/09 00:37:44;;;;;;;4.68;1.70;;;;;;;;;;5060085;28;20104;-88
2022/11/09 00:40:12;;;;;;;3.63;1.75;;;;;;;;;;5076105;28;20035;-88
2022/11/09 00:42:40;;;;;;;5.63;1.83;;;;;;;;;;5074064;28;20491;-87
2022/11/09 00:45:08;;;;;;;5.82;1.60;;;;;;;;;;5091197;28;20046;-87
2022/11/09 00:47:36;;;;;;;5.03;1.80;;;;;;;;;;5090999;28;20036;-88
2022/11/09 00:50:28;;;;;;;4.60;1.80;;;;;;;;;;5091525;28;20068;-87
2022/11/09 00:52:56;;;;;;;2.90;1.40;;;;;;;;;;5092331;28;20032;-87
2022/11/09 00:55:58;;;;;;;3.50;1.50;;;;;;;;;;5095113;28;20035;-87
2022/11/09 00:58:30;;;;;;;3.83;1.50;;;;;;;;;;5075781;28;20036;-87
2022/11/09 01:01:08;;;;;;;3.35;1.60;;;;;;;;;;5073371;28;20046;-86
2022/11/09 01:03:44;;;;;;;2.70;1.40;;;;;;;;;;5075875;28;20058;-88
2022/11/09 01:06:18;;;;;;;2.78;1.60;;;;;;;;;;5091434;28;20538;-87
2022/11/09 01:08:47;;;;;;;4.05;1.75;;;;;;;;;;5094215;28;20040;-88
2022/11/09 01:11:21;;;;;;;5.25;1.63;;;;;;;;;;5092439;28;20127;-87
2022/11/09 01:13:52;;;;;;;4.00;1.80;;;;;;;;;;5080399;28;20035;-88
2022/11/09 01:16:22;;;;;;;5.07;1.45;;;;;;;;;;5076183;28;20032;-87
2022/11/09 01:18:54;;;;;;;2.55;1.50;;;;;;;;;;5097015;28;20131;-86
2022/11/09 01:21:26;;;;;;;3.60;1.80;;;;;;;;;;5076234;28;20055;-88
2022/11/09 01:23:55;;;;;;;6.13;1.60;;;;;;;;;;5085232;28;20474;-87
2022/11/09 01:26:29;;;;;;;4.03;1.52;;;;;;;;;;5096500;28;20676;-87
2022/11/09 01:29:02;;;;;;;3.95;1.60;;;;;;;;;;5097795;28;20046;-88
2022/11/09 01:31:32;;;;;;;4.30;1.70;;;;;;;;;;5077337;28;20040;-87
2022/11/09 01:34:02;;;;;;;3.53;1.77;;;;;;;;;;5094012;28;20036;-88
2022/11/09 01:39:30;;;;;;;3.22;1.42;;;;;;;;;;5083846;28;20032;-87
2022/11/09 01:42:24;;;;;;;5.93;1.75;;;;;;;;;;5096131;28;20040;-88
2022/11/09 01:45:17;;;;;;;4.78;1.55;;;;;;;;;;5092533;28;20518;-87
2022/11/09 01:47:49;;;;;;;5.00;1.85;;;;;;;;;;5078773;28;20035;-88
2022/11/09 01:50:31;;;;;;;2.50;1.42;;;;;;;;;;5078771;28;20500;-88
2022/11/09 01:53:01;;;;;;;3.45;1.60;;;;;;;;;;5080128;28;20535;-88
2022/11/09 01:56:19;;;;;;;3.05;1.38;;;;;;;;;;5079199;28;20438;-87
2022/11/09 01:58:53;;;;;;;4.03;1.60;;;;;;;;;;5062631;28;20039;-88
2022/11/09 02:01:22;;;;;;;4.07;1.60;;;;;;;;;;5092830;28;20058;-88
2022/11/09 02:03:59;;;;;;;7.25;1.63;;;;;;;;;;5080927;28;20430;-87
2022/11/09 02:06:28;;;;;;;3.83;1.50;;;;;;;;;;5065618;28;20032;-88
2022/11/09 02:09:42;;;;;;;4.15;2.03;;;;;;;;;;5095946;28;20031;-88
2022/11/09 02:15:36;;;;;;;3.20;1.60;;;;;;;;;;5076112;28;20154;-88
2022/11/09 02:18:12;;;;;;;4.25;1.63;;;;;;;;;;5076743;28;20036;-87
2022/11/09 02:20:52;;;;;;;3.53;1.70;;;;;;;;;;5064822;28;20054;-88
2022/11/09 02:23:26;;;;;;;5.38;1.60;;;;;;;;;;5080579;28;20040;-87
2022/11/09 02:26:07;;;;;;;4.68;1.30;;;;;;;;;;5077042;28;20059;-87
2022/11/09 02:28:38;;;;;;;2.63;1.50;;;;;;;;;;5079302;28;20066;-88
2022/11/09 02:31:10;;;;;;;4.53;1.80;;;;;;;;;;5073935;28;20043;-86
2022/11/09 02:33:49;;;;;;;5.47;1.40;;;;;;;;;;5070348;28;20040;-87
2022/11/09 02:36:22;;;;;;;7.10;1.88;;;;;;;;;;5060847;28;20042;-88
2022/11/09 02:38:56;;;;;;;4.90;1.92;;;;;;;;;;5079374;28;20419;-87
2022/11/09 02:41:25;;;;;;;4.03;1.80;;;;;;;;;;5078406;28;20035;-87
2022/11/09 02:43:53;;;;;;;7.30;1.63;;;;;;;;;;5086739;28;20044;-87
2022/11/09 02:46:33;;;;;;;5.55;1.85;;;;;;;;;;5094159;28;20101;-88
2022/11/09 02:49:03;;;;;;;3.83;1.75;;;;;;;;;;5078236;28;21018;-87
2022/11/09 02:51:30;;;;;;;6.88;1.73;;;;;;;;;;5068855;28;20103;-87
2022/11/09 02:54:22;;;;;;;6.68;1.60;;;;;;;;;;5077076;28;21620;-86
2022/11/09 02:57:14;;;;;;;3.50;1.50;;;;;;;;;;5097201;27;20030;-87
2022/11/09 03:00:07;;;;;;;3.47;1.50;;;;;;;;;;5078623;28;20028;-88
2022/11/09 03:02:36;;;;;;;5.22;1.67;;;;;;;;;;5062623;28;20061;-87
2022/11/09 03:05:04;;;;;;;4.93;1.42;;;;;;;;;;5079484;28;20042;-88
2022/11/09 03:07:34;;;;;;;4.63;1.80;;;;;;;;;;5078272;28;20046;-87
2022/11/09 03:10:02;;;;;;;3.95;1.55;;;;;;;;;;5092187;28;20044;-87
2022/11/09 03:12:30;;;;;;;5.18;1.90;;;;;;;;;;5061605;28;20044;-86
2022/11/09 03:15:08;;;;;;;3.55;1.70;;;;;;;;;;5074714;28;20046;-86
2022/11/09 03:17:40;;;;;;;4.30;1.83;;;;;;;;;;5078805;28;20035;-86
2022/11/09 03:21:04;;;;;;;5.68;1.77;;;;;;;;;;5094060;28;20036;-88
2022/11/09 03:23:38;;;;;;;5.82;1.90;;;;;;;;;;5094461;28;20105;-88
2022/11/09 03:26:06;;;;;;;3.92;1.48;;;;;;;;;;5061406;27;20032;-87
2022/11/09 03:28:34;;;;;;;3.53;1.52;;;;;;;;;;5063609;28;20051;-87
2022/11/09 03:31:07;;;;;;;2.88;1.40;;;;;;;;;;5075382;28;20055;-88
2022/11/09 03:34:00;;;;;;;4.07;1.58;;;;;;;;;;5078669;28;20063;-87
2022/11/09 03:36:34;;;;;;;4.32;1.95;;;;;;;;;;5090863;28;20028;-87
2022/11/09 03:39:02;;;;;;;6.05;1.77;;;;;;;;;;5086111;28;20046;-88
2022/11/09 03:41:32;;;;;;;2.63;1.40;;;;;;;;;;5069221;28;20051;-86
2022/11/09 03:44:00;;;;;;;3.33;1.48;;;;;;;;;;5076441;28;20126;-86
2022/11/09 03:46:28;;;;;;;4.43;1.55;;;;;;;;;;5076451;28;20377;-87
2022/11/09 03:49:22;;;;;;;3.83;1.80;;;;;;;;;;5077128;28;20092;-88
2022/11/09 03:51:54;;;;;;;6.07;2.00;;;;;;;;;;5075854;28;20043;-87
2022/11/09 03:54:22;;;;;;;4.60;1.50;;;;;;;;;;5075993;28;20052;-87
2022/11/09 03:56:50;;;;;;;3.58;1.60;;;;;;;;;;5097414;27;20093;-87
2022/11/09 03:59:22;;;;;;;4.20;1.70;;;;;;;;;;5092148;28;20047;-88
2022/11/09 04:01:50;;;;;;;6.10;1.70;;;;;;;;;;5079411;28;20039;-87
2022/11/09 04:04:18;;;;;;;3.45;1.63;;;;;;;;;;5076734;28;20043;-87
2022/11/09 04:06:50;;;;;;;5.30;1.73;;;;;;;;;;5076019;28;20046;-87
2022/11/09 04:09:18;;;;;;;4.45;1.50;;;;;;;;;;5075143;28;20035;-88
2022/11/09 04:11:56;;;;;;;6.80;1.80;;;;;;;;;;5079310;28;20036;-88
2022/11/09 04:14:24;;;;;;;6.80;1.90;;;;;;;;;;5075812;28;20462;-87
2022/11/09 04:16:52;;;;;;;4.00;1.77;;;;;;;;;;5075277;28;20047;-87
2022/11/09 04:19:20;;;;;;;6.13;1.58;;;;;;;;;;5075030;28;20047;-88
2022/11/09 04:21:48;;;;;;;4.57;1.90;;;;;;;;;;5094873;28;20410;-87
2022/11/09 04:24:44;;;;;;;8.82;1.95;;;;;;;;;;5079712;28;20031;-87
2022/11/09 04:30:10;;;;;;;4.68;2.03;;;;;;;;;;5091990;28;20036;-86
2022/11/09 04:32:38;;;;;;;5.90;1.85;;;;;;;;;;5079303;28;20046;-88
2022/11/09 04:35:06;;;;;;;3.22;1.65;;;;;;;;;;5077551;28;20043;-87
2022/11/09 04:37:34;;;;;;;4.80;1.70;;;;;;;;;;5076426;28;20039;-88
2022/11/09 04:40:02;;;;;;;5.20;1.60;;;;;;;;;;5093109;28;20113;-88
2022/11/09 04:42:34;;;;;;;3.33;1.52;;;;;;;;;;5092256;28;20040;-87
2022/11/09 04:45:02;;;;;;;5.65;1.63;;;;;;;;;;5074374;28;20483;-87
2022/11/09 04:47:34;;;;;;;8.35;2.30;;;;;;;;;;5073558;28;20044;-87
2022/11/09 04:50:02;;;;;;;7.20;1.63;;;;;;;;;;5094344;28;20092;-87
2022/11/09 04:52:34;;;;;;;4.25;1.50;;;;;;;;;;5096800;28;20032;-87
2022/11/09 04:55:03;;;;;;;2.78;1.38;;;;;;;;;;5090643;28;20069;-87
2022/11/09 04:57:30;;;;;;;6.40;1.90;;;;;;;;;;5066870;28;20047;-88
2022/11/09 04:59:58;;;;;;;4.03;1.52;;;;;;;;;;5093921;28;20548;-88
2022/11/09 05:02:26;;;;;;;4.80;1.77;;;;;;;;;;5090891;28;20034;-87
2022/11/09 05:04:58;;;;;;;7.25;1.75;;;;;;;;;;5091059;28;20032;-87
2022/11/09 05:07:26;;;;;;;3.63;1.90;;;;;;;;;;5086797;28;20511;-87
2022/11/09 05:09:58;;;;;;;3.67;1.60;;;;;;;;;;5093768;28;20155;-86
2022/11/09 05:12:26;;;;;;;3.67;1.83;;;;;;;;;;5062294;28;20035;-87
2022/11/09 05:14:58;;;;;;;2.97;1.55;;;;;;;;;;5089958;28;20549;-87
2022/11/09 05:17:33;;;;;;;4.25;1.70;;;;;;;;;;5075529;28;20042;-88
2022/11/09 05:20:00;;;;;;;6.80;1.80;;;;;;;;;;5094285;28;20044;-88
2022/11/09 05:25:14;;;;;;;5.07;1.70;;;;;;;;;;5092978;28;20035;-87
2022/11/09 05:27:44;;;;;;;5.20;2.22;;;;;;;;;;5078823;28;20126;-88
2022/11/09 05:30:12;;;;;;;4.80;1.50;;;;;;;;;;5091960;28;20040;-87
2022/11/09 05:32:40;;;;;;;5.80;1.75;;;;;;;;;;5077551;28;20878;-87
2022/11/09 05:35:32;;;;;;;3.50;1.60;;;;;;;;;;5093819;28;20032;-87
2022/11/09 05:38:00;;;;;;;7.30;1.77;;;;;;;;;;5093266;28;20804;-87
2022/11/09 05:40:28;;;;;;;4.22;1.60;;;;;;;;;;5074261;28;20044;-87
2022/11/09 05:42:56;;;;;;;4.05;1.80;;;;;;;;;;5093209;28;20040;-88
2022/11/09 05:45:24;;;;;;;4.32;1.45;;;;;;;;;;5094357;28;20044;-86
2022/11/09 05:48:12;;;;;;;4.68;1.63;;;;;;;;;;5075137;28;20866;-87
2022/11/09 05:50:51;;;;;;;4.95;1.50;;;;;;;;;;5090899;28;20043;-88
2022/11/09 05:53:24;;;;;;;4.53;1.77;;;;;;;;;;5078768;28;20042;-89
2022/11/09 05:55:52;;;;;;;4.18;1.50;;;;;;;;;;5089373;28;20043;-87
2022/11/09 05:58:22;;;;;;;5.50;1.58;;;;;;;;;;5081052;28;20112;-87
2022/11/09 06:00:50;;;;;;;3.08;1.63;;;;;;;;;;5079710;28;20081;-88
2022/11/09 06:03:18;;;;;;;4.80;1.67;;;;;;;;;;5078643;28;20133;-86
2022/11/09 06:05:46;;;;;;;5.65;1.50;;;;;;;;;;5097742;28;20076;-87
2022/11/09 06:08:14;;;;;;;7.65;1.70;;;;;;;;;;5096745;28;20093;-87
2022/11/09 06:10:42;;;;;;;3.97;1.45;;;;;;;;;;5077615;28;20487;-87
2022/11/09 06:13:11;;;;;;;4.20;1.50;;;;;;;;;;5095974;28;20035;-88
2022/11/09 06:16:28;;;;;;;3.50;1.50;;;;;;;;;;5094627;28;20032;-87
2022/11/09 06:18:56;;;;;;;6.18;1.88;;;;;;;;;;5082467;28;20058;-88
2022/11/09 06:21:24;;;;;;;4.22;1.70;;;;;;;;;;5093486;28;20043;-88
2022/11/09 06:23:52;;;;;;;3.00;1.60;;;;;;;;;;5093845;28;20042;-88
2022/11/09 06:26:20;;;;;;;2.13;1.27;;;;;;;;;;5092008;28;20839;-84
2022/11/09 06:28:48;;;;;;;4.93;1.58;;;;;;;;;;5077435;28;20067;-87
2022/11/09 06:31:16;;;;;;;6.50;1.85;;;;;;;;;;5095729;28;20039;-84
2022/11/09 06:33:44;;;;;;;3.75;1.45;;;;;;;;;;5076792;28;20039;-87
2022/11/09 06:36:16;;;;;;;2.75;1.33;;;;;;;;;;5096144;28;20055;-87
2022/11/09 06:38:49;;;;;;;3.63;1.67;;;;;;;;;;5092618;28;20032;-88
2022/11/09 06:41:16;;;;;;;4.07;1.55;;;;;;;;;;5083044;28;20511;-87
2022/11/09 06:43:44;;;;;;;2.80;1.45;;;;;;;;;;5097967;28;20099;-88
2022/11/09 06:46:16;;;;;;;4.30;1.65;;;;;;;;;;5078563;28;20155;-87
2022/11/09 06:48:44;;;;;;;4.30;1.85;;;;;;;;;;5077531;28;20044;-87
2022/11/09 06:51:16;;;;;;;4.70;1.70;;;;;;;;;;5094739;28;20036;-87
2022/11/09 06:53:48;;;;;;;3.88;1.55;;;;;;;;;;5064161;28;20053;-85
2022/11/09 06:56:40;;;;;;;3.90;1.45;;;;;;;;;;5092550;28;20027;-86
2022/11/09 06:59:12;;;;;;;3.78;1.60;;;;;;;;;;5074753;28;20039;-87
2022/11/09 07:01:40;;;;;;;6.53;1.80;;;;;;;;;;5073838;28;20551;-87
2022/11/09 07:04:58;;;;;;;5.57;1.48;;;;;;;;;;5095597;28;20020;-87
2022/11/09 07:07:30;;;;;;;4.32;1.42;;;;;;;;;;5095445;28;20067;-86
2022/11/09 07:10:24;;;;;;;5.65;1.70;;;;;;;;;;5077752;28;20040;-87
2022/11/09 07:12:52;;;;;;;3.65;1.40;;;;;;;;;;5084327;28;20078;-87
2022/11/09 07:15:24;;;;;;;6.22;1.42;;;;;;;;;;5093442;28;20028;-86
2022/11/09 07:17:56;;;;;;;3.00;1.50;;;;;;;;;;5076541;28;20401;-86
2022/11/09 07:20:24;;;;;;;4.40;1.60;;;;;;;;;;5096472;28;20132;-86
2022/11/09 07:22:52;;;;;;;3.45;1.40;;;;;;;;;;5096478;28;20052;-86
2022/11/09 07:25:26;;;;;;;3.35;1.80;;;;;;;;;;5097530;28;20063;-88
2022/11/09 07:27:54;;;;;;;5.25;1.52;;;;;;;;;;5080551;28;20576;-87
2022/11/09 07:30:22;;;;;;;3.80;1.52;;;;;;;;;;5094577;28;20142;-88
2022/11/09 07:33:17;;;;;;;5.57;1.40;;;;;;;;;;5074225;28;20069;-86
2022/11/09 07:35:45;;;;;;;5.18;1.40;;;;;;;;;;5094806;28;20041;-87
2022/11/09 07:38:14;;;;;;;3.60;1.50;;;;;;;;;;5092799;28;20479;-86
2022/11/09 07:40:46;;;;;;;6.45;1.60;;;;;;;;;;5074510;28;20506;-87
2022/11/09 07:43:14;;;;;;;3.40;1.50;;;;;;;;;;5091133;28;20093;-87
2022/11/09 07:45:46;;;;;;;7.28;1.85;;;;;;;;;;5063207;28;20117;-86
2022/11/09 07:48:38;;;;;;;3.85;1.50;;;;;;;;;;5091856;28;20044;-86
2022/11/09 07:51:06;;;;;;;2.95;1.40;;;;;;;;;;5093655;28;20043;-87
2022/11/09 07:53:34;;;;;;;4.47;1.42;;;;;;;;;;5078607;28;20564;-86
2022/11/09 07:56:03;;;;;;;5.32;2.85;;;;;;;;;;5092712;27;20066;-86
2022/11/09 07:58:36;;;;;;;6.07;1.60;;;;;;;;;;5076198;28;20070;-87
2022/11/09 08:01:09;;;;;;;4.50;1.73;;;;;;;;;;5091972;28;20172;-87
2022/11/09 08:03:42;;;;;;;3.22;1.67;;;;;;;;;;5092394;28;20055;-87
2022/11/09 08:06:10;;;;;;;3.78;1.30;;;;;;;;;;5073885;28;20048;-85
2022/11/09 08:08:44;;;;;;;3.83;1.52;;;;;;;;;;5095929;28;20044;-87
2022/11/09 08:11:12;;;;;;;4.78;1.60;;;;;;;;;;5090786;28;20067;-87
2022/11/09 08:13:48;;;;;;;9.90;1.80;;;;;;;;;;5096312;28;20036;-87
2022/11/09 08:16:16;;;;;;;3.35;1.60;;;;;;;;;;5089822;28;20035;-87
2022/11/09 08:18:44;;;;;;;3.95;1.30;;;;;;;;;;5093651;28;20063;-87
2022/11/09 08:21:17;;;;;;;3.85;1.40;;;;;;;;;;5091404;28;20119;-86
2022/11/09 08:23:47;;;;;;;6.82;2.10;;;;;;;;;;5069494;28;20535;-86
2022/11/09 08:26:22;;;;;;;3.75;1.52;;;;;;;;;;5071151;28;20052;-87
2022/11/09 08:28:50;;;;;;;5.45;1.63;;;;;;;;;;5057429;28;20054;-87
2022/11/09 08:31:18;;;;;;;4.50;1.73;;;;;;;;;;5056132;28;20040;-87
2022/11/09 08:34:12;;;;;;;3.90;1.58;;;;;;;;;;5056662;28;20055;-87
2022/11/09 08:36:40;;;;;;;7.18;1.60;;;;;;;;;;5069898;28;20054;-87
2022/11/09 08:39:09;;;;;;;4.70;1.42;;;;;;;;;;5070334;28;20539;-87
2022/11/09 08:41:42;;;;;;;5.50;1.70;;;;;;;;;;5070865;28;20057;-86
2022/11/09 08:44:14;;;;;;;5.32;1.58;;;;;;;;;;5073907;28;20052;-87
2022/11/09 08:46:42;;;;;;;8.63;2.13;;;;;;;;;;5068685;28;20063;-88
2022/11/09 08:49:10;;;;;;;7.47;1.80;;;;;;;;;;5059527;28;20143;-87
2022/11/09 08:51:38;;;;;;;7.78;1.85;;;;;;;;;;5044119;28;20433;-88
2022/11/09 08:54:06;;;;;;;5.95;1.60;;;;;;;;;;5071988;28;20102;-89
2022/11/09 08:56:34;;;;;;;5.63;1.80;;;;;;;;;;5058345;28;20055;-87
2022/11/09 08:59:02;;;;;;;4.97;1.65;;;;;;;;;;5070650;28;20630;-87
2022/11/09 09:01:30;;;;;;;5.78;1.40;;;;;;;;;;5078822;28;20218;-88
2022/11/09 09:03:58;;;;;;;8.18;1.30;;;;;;;;;;5077505;28;20122;-89
2022/11/09 09:06:26;;;;;;;2.25;1.15;;;;;;;;;;5074261;28;20086;-88
2022/11/09 09:09:02;;;;;;;5.22;1.30;;;;;;;;;;5075086;28;20043;-88
2022/11/09 09:11:34;;;;;;;7.28;1.98;;;;;;;;;;5075001;28;20263;-89
2022/11/09 09:14:02;;;;;;;5.00;1.45;;;;;;;;;;5074903;28;20616;-88
2022/11/09 09:16:30;;;;;;;4.93;1.70;;;;;;;;;;5087326;28;20043;-88
2022/11/09 09:19:03;;;;;;;9.90;2.75;;;;;;;;;;5076757;28;20029;-89
2022/11/09 09:21:30;;;;;;;6.57;1.40;;;;;;;;;;5087576;28;20040;-87
2022/11/09 09:23:58;;;;;;;4.32;1.58;;;;;;;;;;5091534;28;20043;-88
2022/11/09 09:26:34;;;;;;;4.78;1.65;;;;;;;;;;5092144;28;20494;-88
2022/11/09 09:29:28;;;;;;;5.05;1.50;;;;;;;;;;5065721;28;20185;-87
2022/11/09 09:31:56;;;;;;;6.85;1.50;;;;;;;;;;5087218;28;20300;-86
2022/11/09 09:34:24;;;;;;;6.05;1.92;;;;;;;;;;5091862;28;20044;-88
2022/11/09 09:36:58;;;;;;;7.32;1.63;;;;;;;;;;5095429;28;20036;-87
2022/11/09 09:39:26;;;;;;;4.90;1.83;;;;;;;;;;5077101;28;20038;-87
2022/11/09 09:42:00;;;;;;;5.55;1.40;;;;;;;;;;5094810;28;20067;-87
2022/11/09 09:45:00;;;;;;;8.30;2.38;;;;;;;;;;5076085;28;20063;-88
2022/11/09 09:47:47;;;;;;;7.35;1.80;;;;;;;;;;5084489;28;20042;-88
2022/11/09 09:50:38;;;;;;;7.80;1.92;;;;;;;;;;5097642;28;20035;-87
2022/11/09 09:53:22;;;;;;;5.15;1.70;;;;;;;;;;5091569;28;20040;-87
2022/11/09 09:56:04;;;;;;;5.43;1.67;;;;;;;;;;5061841;28;21191;-87
2022/11/09 09:58:33;;;;;;;5.65;1.48;;;;;;;;;;5072738;28;20652;-88
2022/11/09 10:01:38;;;;;;;4.05;1.42;;;;;;;;;;5086247;28;20032;-88
2022/11/09 10:04:20;;;;;;;8.90;1.45;;;;;;;;;;5096293;28;20036;-88
2022/11/09 10:07:13;;;;;;;7.00;1.52;;;;;;;;;;5094128;28;20040;-89
2022/11/09 10:09:47;;;;;;;8.43;1.52;;;;;;;;;;5078748;28;20089;-89
2022/11/09 10:12:40;;;;;;;3.75;1.48;;;;;;;;;;5096566;28;20031;-88
2022/11/09 10:15:27;;;;;;;3.75;1.30;;;;;;;;;;5075372;28;20040;-89
2022/11/09 10:18:09;;;;;;;4.53;1.38;;;;;;;;;;5093417;28;20043;-89
2022/11/09 10:21:36;;;;;;;8.95;2.08;;;;;;;;;;5064216;28;20023;-87
2022/11/09 10:24:30;;;;;;;10.77;1.48;;;;;;;;;;5095929;28;20043;-88
2022/11/09 10:26:59;;;;;;;9.10;1.70;;;;;;;;;;5077939;28;20043;-88
2022/11/09 10:29:33;;;;;;;7.57;1.45;;;;;;;;;;5096606;28;20136;-88
2022/11/09 10:32:12;;;;;;;4.38;1.50;;;;;;;;;;5080069;28;20622;-87
2022/11/09 10:35:01;;;;;;;6.07;1.48;;;;;;;;;;5079967;28;20122;-87
2022/11/09 10:37:37;;;;;;;11.55;1.92;;;;;;;;;;5061099;28;20044;-88
2022/11/09 10:40:07;;;;;;;5.32;1.60;;;;;;;;;;5068612;28;20047;-87
2022/11/09 10:43:19;;;;;;;6.72;2.00;;;;;;;;;;5080882;28;20056;-88
2022/11/09 10:46:07;;;;;;;8.48;1.83;;;;;;;;;;5089807;28;20122;-89
2022/11/09 10:48:54;;;;;;;5.72;1.75;;;;;;;;;;5093716;28;20034;-89
2022/11/09 10:51:45;;;;;;;5.40;1.58;;;;;;;;;;5078189;28;20079;-88
2022/11/09 10:55:15;;;;;;;10.05;1.85;;;;;;;;;;5078844;28;20118;-88
2022/11/09 10:58:57;;;;;;;6.63;1.65;;;;;;;;;;5091467;28;20047;-88
2022/11/09 11:01:44;;;;;;;8.55;2.00;;;;;;;;;;5089913;28;20040;-88
2022/11/09 11:04:30;;;;;;;7.22;2.45;;;;;;;;;;5094363;28;20048;-88
2022/11/09 11:07:21;;;;;;;9.40;1.60;;;;;;;;;;5081436;28;20093;-87
2022/11/09 11:10:19;;;;;;;5.70;1.45;;;;;;;;;;5078649;28;20040;-88
2022/11/09 11:13:06;;;;;;;6.47;1.55;;;;;;;;;;5092981;28;20036;-88
2022/11/09 11:15:58;;;;;;;8.50;1.55;;;;;;;;;;5077640;28;20045;-87
2022/11/09 11:18:50;;;;;;;4.50;1.70;;;;;;;;;;5092435;28;20115;-88
2022/11/09 11:21:42;;;;;;;6.72;1.80;;;;;;;;;;5074066;28;20051;-87
2022/11/09 11:24:40;;;;;;;4.68;1.55;;;;;;;;;;5096451;28;20093;-88
2022/11/09 11:27:47;;;;;;;4.90;1.70;;;;;;;;;;5092439;28;20035;-87
2022/11/09 11:30:37;;;;;;;5.30;1.95;;;;;;;;;;5076465;28;20490;-88
2022/11/09 11:33:25;;;;;;;8.23;2.05;;;;;;;;;;5078316;28;20062;-88
2022/11/09 11:36:41;;;;;;;7.35;3.17;;;;;;;;;;5078087;28;20066;-87
2022/11/09 11:39:38;;;;;;;6.22;1.90;;;;;;;;;;5093916;28;20036;-88
2022/11/09 11:42:52;;;;;;;6.57;1.75;;;;;;;;;;5092936;28;20176;-88
2022/11/09 11:45:44;;;;;;;6.10;2.08;;;;;;;;;;5086787;28;20575;-87
2022/11/09 11:48:56;;;;;;;9.50;2.28;;;;;;;;;;5068788;28;20036;-87
2022/11/09 11:51:58;;;;;;;12.07;3.42;;;;;;;;;;5079636;28;20059;-88
2022/11/09 11:55:15;;;;;;;7.70;1.65;;;;;;;;;;5064724;28;20432;-88
2022/11/09 11:58:29;;;;;;;5.97;1.63;;;;;;;;;;5087931;28;20043;-89
2022/11/09 12:01:43;;;;;;;11.45;1.52;;;;;;;;;;5079271;28;20040;-89
2022/11/09 12:04:49;;;;;;;14.60;2.10;;;;;;;;;;5086973;28;20127;-88
2022/11/09 12:07:55;;;;;;;5.53;1.20;;;;;;;;;;5080781;28;20182;-90
2022/11/09 12:11:03;;;;;;;4.45;1.10;;;;;;;;;;5077644;28;20044;-89
2022/11/09 12:14:16;;;;;;;9.68;1.38;;;;;;;;;;5079022;28;20044;-88
2022/11/09 12:17:02;;;;;;;7.28;1.50;;;;;;;;;;5091791;28;20181;-90
2022/11/09 12:20:24;;;;;;;9.25;2.17;;;;;;;;;;5095054;28;20039;-89
2022/11/09 12:23:29;;;;;;;5.57;1.35;;;;;;;;;;4975686;28;20220;-90
2022/11/09 12:26:53;;;;;;;9.35;1.42;;;;;;;;;;4998526;28;20052;-88
2022/11/09 12:30:08;;;;;;;4.82;1.50;;;;;;;;;;4997800;28;23210;-89
2022/11/09 12:33:19;;;;;;;6.97;1.50;;;;;;;;;;4983472;28;20182;-88
2022/11/09 12:36:21;;;;;;;10.10;1.55;;;;;;;;;;4998787;28;20104;-89
2022/11/09 12:39:33;;;;;;;3.80;1.30;;;;;;;;;;4998688;28;20050;-88
2022/11/09 12:42:35;;;;;;;8.45;1.73;;;;;;;;;;4998009;28;20754;-88
2022/11/09 12:45:26;;;;;;;4.90;1.38;;;;;;;;;;4985089;28;20046;-88
2022/11/09 12:48:30;;;;;;;6.88;1.70;;;;;;;;;;4995790;28;20121;-89
2022/11/09 12:51:17;;;;;;;7.43;1.55;;;;;;;;;;4983732;28;20095;-89
2022/11/09 12:54:11;;;;;;;6.35;2.00;;;;;;;;;;4997656;28;20060;-87
2022/11/09 12:57:03;;;;;;;8.98;1.77;;;;;;;;;;4981070;28;20045;-89
2022/11/09 12:59:56;;;;;;;7.50;1.65;;;;;;;;;;5041637;28;20058;-88
2022/11/09 13:02:57;;;;;;;4.63;1.60;;;;;;;;;;5076232;28;20047;-88
2022/11/09 13:05:46;;;;;;;5.63;2.05;;;;;;;;;;5091528;28;20036;-88
2022/11/09 13:08:40;;;;;;;6.18;1.50;;;;;;;;;;5078575;28;20123;-88
2022/11/09 13:11:45;;;;;;;7.00;1.83;;;;;;;;;;5096734;28;20617;-89
2022/11/09 13:14:34;;;;;;;5.47;1.50;;;;;;;;;;5079605;28;20043;-88
2022/11/09 13:17:23;;;;;;;6.43;1.70;;;;;;;;;;5094626;28;20529;-89
2022/11/09 13:20:33;;;;;;;7.25;1.50;;;;;;;;;;5098857;27;20062;-89
2022/11/09 13:23:44;;;;;;;5.85;1.50;;;;;;;;;;5094601;28;20503;-88
2022/11/09 13:26:48;;;;;;;4.90;1.85;;;;;;;;;;5094045;28;20047;-88
2022/11/09 13:29:40;;;;;;;5.50;1.75;;;;;;;;;;5092937;28;20061;-89
2022/11/09 13:32:33;;;;;;;6.88;1.73;;;;;;;;;;5078058;28;20043;-89
2022/11/09 13:35:39;;;;;;;12.68;2.25;;;;;;;;;;5097695;28;20043;-88
2022/11/09 13:38:29;;;;;;;7.03;1.80;;;;;;;;;;5083573;28;20063;-87
2022/11/09 13:41:30;;;;;;;4.20;1.38;;;;;;;;;;5097661;28;20035;-87
2022/11/09 13:44:27;;;;;;;6.43;1.83;;;;;;;;;;5097292;28;20035;-87
2022/11/09 13:47:35;;;;;;;4.30;1.25;;;;;;;;;;5083068;28;20464;-87
2022/11/09 13:50:28;;;;;;;10.40;1.52;;;;;;;;;;5095878;28;20032;-88
2022/11/09 13:53:46;;;;;;;7.80;1.92;;;;;;;;;;5095872;28;20573;-87
2022/11/09 13:56:40;;;;;;;7.32;2.05;;;;;;;;;;5095970;27;20036;-87
2022/11/09 13:59:35;;;;;;;5.10;1.52;;;;;;;;;;5095184;28;20055;-87
2022/11/09 14:02:24;;;;;;;4.68;1.83;;;;;;;;;;5079876;28;20059;-87
2022/11/09 14:05:34;;;;;;;7.70;2.03;;;;;;;;;;5076786;28;20046;-88
2022/11/09 14:08:30;;;;;;;4.75;1.85;;;;;;;;;;5095160;28;20147;-88
2022/11/09 14:11:52;;;;;;;5.75;1.63;;;;;;;;;;5094319;28;20088;-87
2022/11/09 14:14:56;;;;;;;5.75;1.70;;;;;;;;;;5094511;28;20051;-87
2022/11/09 14:18:00;;;;;;;5.25;1.83;;;;;;;;;;5081781;28;20071;-87
2022/11/09 14:21:20;;;;;;;3.95;1.45;;;;;;;;;;5096781;28;20184;-87
2022/11/09 14:24:31;;;;;;;6.90;1.38;;;;;;;;;;5081546;28;20044;-86
2022/11/09 14:27:22;;;;;;;2.47;1.40;;;;;;;;;;5084896;28;20051;-86
2022/11/09 14:30:21;;;;;;;7.20;1.70;;;;;;;;;;5096320;28;20084;-86
2022/11/09 14:33:26;;;;;;;5.05;1.42;;;;;;;;;;5094565;28;20036;-86
2022/11/09 14:36:12;;;;;;;5.65;1.50;;;;;;;;;;5098107;28;20040;-87
2022/11/09 14:39:01;;;;;;;7.80;1.58;;;;;;;;;;5095481;28;20124;-86
2022/11/09 14:41:49;;;;;;;7.80;1.55;;;;;;;;;;5097416;28;20123;-86
2022/11/09 14:44:39;;;;;;;7.20;1.50;;;;;;;;;;5095648;28;20036;-86
2022/11/09 14:47:33;;;;;;;5.72;1.40;;;;;;;;;;5093201;28;20043;-86
2022/11/09 14:50:44;;;;;;;9.80;2.10;;;;;;;;;;5079188;28;20405;-86
2022/11/09 14:53:42;;;;;;;4.25;1.50;;;;;;;;;;5094039;28;20173;-86
2022/11/09 14:56:37;;;;;;;4.20;1.70;;;;;;;;;;5097264;28;20036;-86
2022/11/09 14:59:31;;;;;;;7.47;2.30;;;;;;;;;;5097337;28;20043;-86
2022/11/09 15:02:23;;;;;;;5.20;1.60;;;;;;;;;;5069673;28;20044;-87
2022/11/09 15:05:31;;;;;;;9.63;2.10;;;;;;;;;;5096461;28;20398;-86
2022/11/09 15:08:24;;;;;;;6.13;2.28;;;;;;;;;;5094346;28;20040;-87
2022/11/09 15:11:10;;;;;;;10.82;2.65;;;;;;;;;;5079636;28;20059;-86
2022/11/09 15:14:11;;;;;;;6.82;2.17;;;;;;;;;;5096213;28;20089;-86
2022/11/09 15:17:04;;;;;;;6.90;2.25;;;;;;;;;;5095160;28;20232;-86
2022/11/09 15:19:56;;;;;;;6.20;2.10;;;;;;;;;;5097142;28;20040;-86
2022/11/09 15:22:52;;;;;;;5.50;1.90;;;;;;;;;;5074693;28;20054;-86
2022/11/09 15:25:44;;;;;;;9.00;2.28;;;;;;;;;;5088288;28;20115;-85
2022/11/09 15:28:44;;;;;;;6.10;1.88;;;;;;;;;;5089205;28;20040;-86
2022/11/09 15:31:30;;;;;;;5.57;2.50;;;;;;;;;;5086597;28;20047;-86
2022/11/09 15:34:25;;;;;;;5.22;2.42;;;;;;;;;;5087408;28;20039;-87
2022/11/09 15:37:42;;;;;;;7.22;1.92;;;;;;;;;;5088028;27;20063;-87
2022/11/09 15:40:32;;;;;;;7.40;2.15;;;;;;;;;;5091018;28;20043;-87
2022/11/09 15:43:18;;;;;;;14.25;2.45;;;;;;;;;;5094504;28;20039;-87
2022/11/09 15:46:05;;;;;;;7.03;1.98;;;;;;;;;;5093416;28;20031;-88
2022/11/09 15:48:52;;;;;;;6.82;2.08;;;;;;;;;;5096821;28;20043;-85
2022/11/09 15:51:38;;;;;;;3.33;1.90;;;;;;;;;;5094517;28;20040;-87
2022/11/09 15:54:32;;;;;;;5.65;2.08;;;;;;;;;;5092442;28;20511;-87
2022/11/09 15:57:20;;;;;;;7.57;2.47;;;;;;;;;;5097033;28;20039;-87
2022/11/09 16:00:11;;;;;;;7.30;2.40;;;;;;;;;;5093304;28;20136;-86
2022/11/09 16:03:11;;;;;;;5.05;1.90;;;;;;;;;;5096176;27;20372;-87
2022/11/09 16:05:58;;;;;;;6.32;2.50;;;;;;;;;;5093668;28;20067;-87
2022/11/09 16:08:49;;;;;;;8.10;2.47;;;;;;;;;;5076172;28;20178;-87
2022/11/09 16:11:34;;;;;;;6.25;2.38;;;;;;;;;;5063054;28;20044;-87
2022/11/09 16:14:20;;;;;;;6.30;2.10;;;;;;;;;;5093705;28;20522;-87
2022/11/09 16:17:32;;;;;;;6.65;2.40;;;;;;;;;;5080900;28;20466;-87
2022/11/09 16:20:19;;;;;;;5.32;2.20;;;;;;;;;;5093225;28;20399;-86
2022/11/09 16:23:08;;;;;;;8.15;2.30;;;;;;;;;;5083275;28;20046;-87